sensor_id;sensor_type;location;lat;lon;timestamp;P1;durP1;ratioP1;P2;durP2;ratioP2
63114;SDS011;49208;50.874;6.466;2023-05-07T06:02:58;19.27;;;6.53;;
63114;SDS011;49208;50.874;6.466;2023-05-07T06:05:23;23.13;;;6.15;;
63114;SDS011;49208;50.874;6.466;2023-05-07T06:07:48;12.95;;;6.25;;
63114;SDS011;49208;50.874;6.466;2023-05-07T06:10:14;13.15;;;5.25;;
63114;SDS011;49208;50.874;6.466;2023-05-07T06:12:39;8.35;;;4.20;;
63114;SDS011;49208;50.874;6.466;2023-05-07T06:15:05;10.07;;;4.38;;
63114;SDS011;49208;50.874;6.466;2023-05-07T06:17:31;11.73;;;4.70;;
63114;SDS011;49208;50.874;6.466;2023-05-07T06:19:56;10.02;;;4.00;;
63114;SDS011;49208;50.874;6.466;2023-05-07T06:22:21;9.27;;;4.30;;
63114;SDS011;49208;50.874;6.466;2023-05-07T06:24:47;7.72;;;4.45;;
63114;SDS011;49208;50.874;6.466;2023-05-07T06:27:12;12.02;;;4.22;;
63114;SDS011;49208;50.874;6.466;2023-05-07T06:29:38;14.80;;;4.95;;
63114;SDS011;49208;50.874;6.466;2023-05-07T06:32:09;8.45;;;3.80;;
63114;SDS011;49208;50.874;6.466;2023-05-07T06:34:36;8.95;;;4.97;;
63114;SDS011;49208;50.874;6.466;2023-05-07T06:37:02;8.32;;;4.90;;
63114;SDS011;49208;50.874;6.466;2023-05-07T06:39:27;8.57;;;4.90;;
63114;SDS011;49208;50.874;6.466;2023-05-07T06:41:53;7.05;;;4.63;;
63114;SDS011;49208;50.874;6.466;2023-05-07T06:44:18;8.27;;;4.50;;
63114;SDS011;49208;50.874;6.466;2023-05-07T06:46:44;8.40;;;4.25;;
63114;SDS011;49208;50.874;6.466;2023-05-07T06:49:10;10.25;;;4.45;;
63114;SDS011;49208;50.874;6.466;2023-05-07T06:51:35;6.88;;;3.42;;
63114;SDS011;49208;50.874;6.466;2023-05-07T06:54:01;5.53;;;2.78;;
63114;SDS011;49208;50.874;6.466;2023-05-07T06:56:26;6.97;;;3.70;;
63114;SDS011;49208;50.874;6.466;2023-05-07T06:58:52;10.35;;;3.70;;
63114;SDS011;49208;50.874;6.466;2023-05-07T07:01:17;7.10;;;3.30;;
63114;SDS011;49208;50.874;6.466;2023-05-07T07:03:42;5.45;;;3.08;;
63114;SDS011;49208;50.874;6.466;2023-05-07T07:06:08;6.78;;;3.50;;
63114;SDS011;49208;50.874;6.466;2023-05-07T07:08:33;6.50;;;3.35;;
63114;SDS011;49208;50.874;6.466;2023-05-07T07:10:59;7.05;;;2.85;;
63114;SDS011;49208;50.874;6.466;2023-05-07T07:13:25;9.70;;;4.40;;
63114;SDS011;49208;50.874;6.466;2023-05-07T07:15:51;9.43;;;5.10;;
63114;SDS011;49208;50.874;6.466;2023-05-07T07:20:43;11.93;;;4.90;;
63114;SDS011;49208;50.874;6.466;2023-05-07T07:23:09;8.77;;;4.68;;
63114;SDS011;49208;50.874;6.466;2023-05-07T07:25:34;13.63;;;5.72;;
63114;SDS011;49208;50.874;6.466;2023-05-07T07:28:00;17.60;;;5.78;;
63114;SDS011;49208;50.874;6.466;2023-05-07T07:30:26;12.00;;;5.40;;
63114;SDS011;49208;50.874;6.466;2023-05-07T07:32:51;12.38;;;7.03;;
63114;SDS011;49208;50.874;6.466;2023-05-07T07:35:17;13.68;;;5.57;;
63114;SDS011;49208;50.874;6.466;2023-05-07T07:37:43;13.90;;;5.75;;
63114;SDS011;49208;50.874;6.466;2023-05-07T07:40:08;10.77;;;4.72;;
63114;SDS011;49208;50.874;6.466;2023-05-07T07:42:34;12.55;;;5.85;;
63114;SDS011;49208;50.874;6.466;2023-05-07T07:44:59;14.02;;;5.82;;
63114;SDS011;49208;50.874;6.466;2023-05-07T07:47:25;12.77;;;5.53;;
63114;SDS011;49208;50.874;6.466;2023-05-07T07:49:50;11.75;;;5.55;;
63114;SDS011;49208;50.874;6.466;2023-05-07T07:52:16;15.60;;;6.45;;
63114;SDS011;49208;50.874;6.466;2023-05-07T07:54:41;12.95;;;5.15;;
63114;SDS011;49208;50.874;6.466;2023-05-07T07:57:06;12.23;;;5.07;;
63114;SDS011;49208;50.874;6.466;2023-05-07T07:59:32;11.38;;;5.35;;
63114;SDS011;49208;50.874;6.466;2023-05-07T08:01:57;10.93;;;5.15;;
63114;SDS011;49208;50.874;6.466;2023-05-07T08:04:22;10.93;;;5.18;;
63114;SDS011;49208;50.874;6.466;2023-05-07T08:06:48;9.90;;;4.85;;
63114;SDS011;49208;50.874;6.466;2023-05-07T08:09:13;9.32;;;4.45;;
63114;SDS011;49208;50.874;6.466;2023-05-07T08:11:39;7.53;;;4.28;;
63114;SDS011;49208;50.874;6.466;2023-05-07T08:14:04;8.73;;;3.60;;
63114;SDS011;49208;50.874;6.466;2023-05-07T08:16:30;10.45;;;3.15;;
63114;SDS011;49208;50.874;6.466;2023-05-07T08:18:55;7.78;;;3.55;;
63114;SDS011;49208;50.874;6.466;2023-05-07T08:21:21;8.55;;;3.97;;
63114;SDS011;49208;50.874;6.466;2023-05-07T08:23:47;8.80;;;3.35;;
63114;SDS011;49208;50.874;6.466;2023-05-07T08:26:12;9.98;;;4.35;;
63114;SDS011;49208;50.874;6.466;2023-05-07T08:28:38;9.55;;;4.07;;
63114;SDS011;49208;50.874;6.466;2023-05-07T08:31:04;18.13;;;4.60;;
63114;SDS011;49208;50.874;6.466;2023-05-07T08:33:29;8.63;;;4.57;;
63114;SDS011;49208;50.874;6.466;2023-05-07T08:35:55;8.70;;;4.35;;
63114;SDS011;49208;50.874;6.466;2023-05-07T08:38:21;9.27;;;4.10;;
63114;SDS011;49208;50.874;6.466;2023-05-07T08:40:46;10.90;;;4.20;;
63114;SDS011;49208;50.874;6.466;2023-05-07T08:43:13;10.40;;;3.85;;
63114;SDS011;49208;50.874;6.466;2023-05-07T08:48:07;9.93;;;3.63;;
63114;SDS011;49208;50.874;6.466;2023-05-07T08:50:35;9.10;;;3.85;;
63114;SDS011;49208;50.874;6.466;2023-05-07T08:53:02;8.45;;;3.33;;
63114;SDS011;49208;50.874;6.466;2023-05-07T08:57:54;10.47;;;4.20;;
63114;SDS011;49208;50.874;6.466;2023-05-07T09:00:19;9.82;;;3.58;;
63114;SDS011;49208;50.874;6.466;2023-05-07T09:02:45;8.25;;;3.08;;
63114;SDS011;49208;50.874;6.466;2023-05-07T09:05:10;10.80;;;2.75;;
63114;SDS011;49208;50.874;6.466;2023-05-07T09:07:36;6.97;;;3.25;;
63114;SDS011;49208;50.874;6.466;2023-05-07T09:10:02;7.43;;;3.40;;
63114;SDS011;49208;50.874;6.466;2023-05-07T09:12:29;12.95;;;4.10;;
63114;SDS011;49208;50.874;6.466;2023-05-07T09:14:55;6.25;;;2.67;;
63114;SDS011;49208;50.874;6.466;2023-05-07T09:17:20;7.22;;;2.80;;
63114;SDS011;49208;50.874;6.466;2023-05-07T09:19:46;8.48;;;3.25;;
63114;SDS011;49208;50.874;6.466;2023-05-07T09:22:12;11.50;;;4.38;;
63114;SDS011;49208;50.874;6.466;2023-05-07T09:24:38;7.70;;;3.60;;
63114;SDS011;49208;50.874;6.466;2023-05-07T09:27:03;8.90;;;2.78;;
63114;SDS011;49208;50.874;6.466;2023-05-07T09:29:30;7.68;;;2.90;;
63114;SDS011;49208;50.874;6.466;2023-05-07T09:32:03;5.60;;;2.60;;
63114;SDS011;49208;50.874;6.466;2023-05-07T09:34:30;8.73;;;3.60;;
63114;SDS011;49208;50.874;6.466;2023-05-07T09:36:56;7.07;;;2.95;;
63114;SDS011;49208;50.874;6.466;2023-05-07T09:39:23;6.70;;;2.92;;
63114;SDS011;49208;50.874;6.466;2023-05-07T09:41:49;5.65;;;2.42;;
63114;SDS011;49208;50.874;6.466;2023-05-07T09:44:17;6.72;;;2.28;;
63114;SDS011;49208;50.874;6.466;2023-05-07T09:46:43;7.22;;;2.50;;
63114;SDS011;49208;50.874;6.466;2023-05-07T09:49:14;9.13;;;2.75;;
63114;SDS011;49208;50.874;6.466;2023-05-07T09:51:48;7.10;;;3.05;;
63114;SDS011;49208;50.874;6.466;2023-05-07T09:54:15;5.63;;;2.75;;
63114;SDS011;49208;50.874;6.466;2023-05-07T09:56:45;5.85;;;2.15;;
63114;SDS011;49208;50.874;6.466;2023-05-07T09:59:13;4.57;;;2.55;;
63114;SDS011;49208;50.874;6.466;2023-05-07T10:01:40;8.55;;;2.28;;
63114;SDS011;49208;50.874;6.466;2023-05-07T10:04:07;5.38;;;2.72;;
63114;SDS011;49208;50.874;6.466;2023-05-07T10:06:36;6.65;;;2.30;;
63114;SDS011;49208;50.874;6.466;2023-05-07T10:09:02;6.78;;;2.30;;
63114;SDS011;49208;50.874;6.466;2023-05-07T10:11:31;6.80;;;2.50;;
63114;SDS011;49208;50.874;6.466;2023-05-07T10:14:00;7.80;;;2.55;;
63114;SDS011;49208;50.874;6.466;2023-05-07T10:16:27;6.13;;;2.70;;
63114;SDS011;49208;50.874;6.466;2023-05-07T10:18:56;5.00;;;2.30;;
63114;SDS011;49208;50.874;6.466;2023-05-07T10:21:23;7.25;;;2.60;;
63114;SDS011;49208;50.874;6.466;2023-05-07T10:23:49;6.47;;;2.10;;
63114;SDS011;49208;50.874;6.466;2023-05-07T10:26:17;4.13;;;2.22;;
63114;SDS011;49208;50.874;6.466;2023-05-07T10:28:47;5.55;;;2.58;;
63114;SDS011;49208;50.874;6.466;2023-05-07T10:34:02;7.47;;;2.65;;
63114;SDS011;49208;50.874;6.466;2023-05-07T10:36:36;3.58;;;2.00;;
63114;SDS011;49208;50.874;6.466;2023-05-07T10:39:02;7.30;;;2.20;;
63114;SDS011;49208;50.874;6.466;2023-05-07T10:41:28;7.13;;;1.90;;
63114;SDS011;49208;50.874;6.466;2023-05-07T10:43:53;5.72;;;1.90;;
63114;SDS011;49208;50.874;6.466;2023-05-07T10:46:19;4.45;;;1.58;;
63114;SDS011;49208;50.874;6.466;2023-05-07T10:51:31;5.43;;;2.30;;
63114;SDS011;49208;50.874;6.466;2023-05-07T10:56:38;6.22;;;2.10;;
63114;SDS011;49208;50.874;6.466;2023-05-07T11:01:58;8.05;;;2.33;;
63114;SDS011;49208;50.874;6.466;2023-05-07T11:04:28;4.50;;;2.17;;
63114;SDS011;49208;50.874;6.466;2023-05-07T11:15:02;5.57;;;2.50;;
63114;SDS011;49208;50.874;6.466;2023-05-07T11:17:32;5.40;;;2.25;;
63114;SDS011;49208;50.874;6.466;2023-05-07T11:20:00;9.27;;;2.53;;
63114;SDS011;49208;50.874;6.466;2023-05-07T11:25:05;4.78;;;2.28;;
63114;SDS011;49208;50.874;6.466;2023-05-07T11:27:31;8.10;;;2.60;;
63114;SDS011;49208;50.874;6.466;2023-05-07T11:29:57;4.90;;;2.67;;
63114;SDS011;49208;50.874;6.466;2023-05-07T11:32:32;4.85;;;2.80;;
63114;SDS011;49208;50.874;6.466;2023-05-07T11:34:58;6.35;;;2.53;;
63114;SDS011;49208;50.874;6.466;2023-05-07T11:37:25;6.65;;;2.75;;
63114;SDS011;49208;50.874;6.466;2023-05-07T11:40:02;3.90;;;2.17;;
63114;SDS011;49208;50.874;6.466;2023-05-07T11:44:57;4.10;;;2.35;;
63114;SDS011;49208;50.874;6.466;2023-05-07T11:47:23;3.72;;;1.92;;
63114;SDS011;49208;50.874;6.466;2023-05-07T11:49:50;5.87;;;2.63;;
63114;SDS011;49208;50.874;6.466;2023-05-07T11:52:20;3.80;;;2.42;;
63114;SDS011;49208;50.874;6.466;2023-05-07T11:57:16;4.95;;;2.33;;
63114;SDS011;49208;50.874;6.466;2023-05-07T11:59:42;4.97;;;2.90;;
63114;SDS011;49208;50.874;6.466;2023-05-07T12:04:34;5.90;;;3.00;;
63114;SDS011;49208;50.874;6.466;2023-05-07T12:07:00;4.70;;;2.90;;
63114;SDS011;49208;50.874;6.466;2023-05-07T12:09:26;4.82;;;2.88;;
63114;SDS011;49208;50.874;6.466;2023-05-07T12:11:51;4.85;;;2.70;;
63114;SDS011;49208;50.874;6.466;2023-05-07T12:14:17;4.75;;;2.58;;
63114;SDS011;49208;50.874;6.466;2023-05-07T12:16:43;5.32;;;3.10;;
63114;SDS011;49208;50.874;6.466;2023-05-07T12:19:10;4.95;;;2.90;;
63114;SDS011;49208;50.874;6.466;2023-05-07T12:21:37;5.05;;;2.63;;
63114;SDS011;49208;50.874;6.466;2023-05-07T12:24:04;4.80;;;2.58;;
63114;SDS011;49208;50.874;6.466;2023-05-07T12:26:29;5.30;;;3.00;;
63114;SDS011;49208;50.874;6.466;2023-05-07T12:28:56;3.78;;;2.10;;
63114;SDS011;49208;50.874;6.466;2023-05-07T12:31:22;4.18;;;2.63;;
63114;SDS011;49208;50.874;6.466;2023-05-07T12:33:48;6.28;;;3.60;;
63114;SDS011;49208;50.874;6.466;2023-05-07T12:36:13;7.80;;;4.22;;
63114;SDS011;49208;50.874;6.466;2023-05-07T12:38:39;13.05;;;5.10;;
63114;SDS011;49208;50.874;6.466;2023-05-07T12:41:06;7.68;;;5.05;;
63114;SDS011;49208;50.874;6.466;2023-05-07T12:43:33;6.80;;;4.75;;
63114;SDS011;49208;50.874;6.466;2023-05-07T12:46:03;10.20;;;4.35;;
63114;SDS011;49208;50.874;6.466;2023-05-07T12:48:30;9.10;;;5.07;;
63114;SDS011;49208;50.874;6.466;2023-05-07T12:50:57;5.32;;;3.38;;
63114;SDS011;49208;50.874;6.466;2023-05-07T12:53:25;6.25;;;3.03;;
63114;SDS011;49208;50.874;6.466;2023-05-07T12:55:52;5.05;;;3.25;;
63114;SDS011;49208;50.874;6.466;2023-05-07T12:58:28;4.18;;;2.88;;
63114;SDS011;49208;50.874;6.466;2023-05-07T13:00:55;6.65;;;3.55;;
63114;SDS011;49208;50.874;6.466;2023-05-07T13:03:29;4.55;;;2.38;;
63114;SDS011;49208;50.874;6.466;2023-05-07T13:06:05;4.80;;;3.25;;
63114;SDS011;49208;50.874;6.466;2023-05-07T13:08:37;6.28;;;3.08;;
63114;SDS011;49208;50.874;6.466;2023-05-07T13:11:06;7.75;;;3.15;;
63114;SDS011;49208;50.874;6.466;2023-05-07T13:13:33;6.25;;;3.17;;
63114;SDS011;49208;50.874;6.466;2023-05-07T13:16:00;6.40;;;2.88;;
63114;SDS011;49208;50.874;6.466;2023-05-07T13:18:26;4.70;;;2.50;;
63114;SDS011;49208;50.874;6.466;2023-05-07T13:20:52;3.92;;;2.50;;
63114;SDS011;49208;50.874;6.466;2023-05-07T13:23:18;5.00;;;3.03;;
63114;SDS011;49208;50.874;6.466;2023-05-07T13:25:44;6.15;;;2.22;;
63114;SDS011;49208;50.874;6.466;2023-05-07T13:28:09;3.83;;;2.33;;
63114;SDS011;49208;50.874;6.466;2023-05-07T13:30:35;3.88;;;2.55;;
63114;SDS011;49208;50.874;6.466;2023-05-07T13:33:00;4.97;;;2.47;;
63114;SDS011;49208;50.874;6.466;2023-05-07T13:35:26;3.83;;;2.00;;
63114;SDS011;49208;50.874;6.466;2023-05-07T13:37:52;3.85;;;1.90;;
63114;SDS011;49208;50.874;6.466;2023-05-07T13:40:19;3.97;;;2.22;;
63114;SDS011;49208;50.874;6.466;2023-05-07T13:42:45;3.78;;;2.10;;
63114;SDS011;49208;50.874;6.466;2023-05-07T13:45:10;3.17;;;1.65;;
63114;SDS011;49208;50.874;6.466;2023-05-07T13:47:38;4.47;;;2.00;;
63114;SDS011;49208;50.874;6.466;2023-05-07T13:50:10;4.07;;;1.90;;
63114;SDS011;49208;50.874;6.466;2023-05-07T13:52:36;4.50;;;2.90;;
63114;SDS011;49208;50.874;6.466;2023-05-07T13:55:02;4.13;;;2.40;;
63114;SDS011;49208;50.874;6.466;2023-05-07T13:57:28;4.55;;;2.05;;
63114;SDS011;49208;50.874;6.466;2023-05-07T13:59:54;3.08;;;1.80;;
63114;SDS011;49208;50.874;6.466;2023-05-07T14:02:19;4.20;;;1.67;;
63114;SDS011;49208;50.874;6.466;2023-05-07T14:04:45;4.82;;;2.00;;
63114;SDS011;49208;50.874;6.466;2023-05-07T14:07:10;3.13;;;1.35;;
63114;SDS011;49208;50.874;6.466;2023-05-07T14:09:35;2.78;;;1.30;;
63114;SDS011;49208;50.874;6.466;2023-05-07T14:12:02;2.45;;;1.42;;
63114;SDS011;49208;50.874;6.466;2023-05-07T14:14:27;4.10;;;1.73;;
63114;SDS011;49208;50.874;6.466;2023-05-07T14:16:53;3.75;;;1.58;;
63114;SDS011;49208;50.874;6.466;2023-05-07T14:19:18;3.67;;;2.00;;
63114;SDS011;49208;50.874;6.466;2023-05-07T14:21:43;3.60;;;2.00;;
63114;SDS011;49208;50.874;6.466;2023-05-07T14:24:09;5.15;;;2.47;;
63114;SDS011;49208;50.874;6.466;2023-05-07T14:26:35;6.00;;;3.15;;
63114;SDS011;49208;50.874;6.466;2023-05-07T14:29:00;5.80;;;3.15;;
63114;SDS011;49208;50.874;6.466;2023-05-07T14:31:26;5.20;;;2.75;;
63114;SDS011;49208;50.874;6.466;2023-05-07T14:33:51;6.90;;;2.90;;
63114;SDS011;49208;50.874;6.466;2023-05-07T14:36:17;5.32;;;2.95;;
63114;SDS011;49208;50.874;6.466;2023-05-07T14:38:45;5.40;;;3.47;;
63114;SDS011;49208;50.874;6.466;2023-05-07T14:41:11;4.63;;;2.77;;
63114;SDS011;49208;50.874;6.466;2023-05-07T14:43:36;4.47;;;2.70;;
63114;SDS011;49208;50.874;6.466;2023-05-07T14:46:02;3.53;;;1.67;;
63114;SDS011;49208;50.874;6.466;2023-05-07T14:48:27;3.28;;;1.70;;
63114;SDS011;49208;50.874;6.466;2023-05-07T14:50:52;3.75;;;1.90;;
63114;SDS011;49208;50.874;6.466;2023-05-07T14:53:18;3.20;;;1.98;;
63114;SDS011;49208;50.874;6.466;2023-05-07T14:55:43;4.13;;;2.30;;
63114;SDS011;49208;50.874;6.466;2023-05-07T14:58:09;4.82;;;1.90;;
63114;SDS011;49208;50.874;6.466;2023-05-07T15:00:36;1.85;;;1.10;;
63114;SDS011;49208;50.874;6.466;2023-05-07T15:03:05;4.30;;;2.00;;
63114;SDS011;49208;50.874;6.466;2023-05-07T15:05:32;3.38;;;1.70;;
63114;SDS011;49208;50.874;6.466;2023-05-07T15:07:58;2.55;;;1.45;;
63114;SDS011;49208;50.874;6.466;2023-05-07T15:10:24;2.83;;;1.52;;
63114;SDS011;49208;50.874;6.466;2023-05-07T15:12:49;2.92;;;1.33;;
63114;SDS011;49208;50.874;6.466;2023-05-07T15:15:15;2.83;;;1.23;;
63114;SDS011;49208;50.874;6.466;2023-05-07T15:17:40;1.98;;;1.17;;
63114;SDS011;49208;50.874;6.466;2023-05-07T15:20:07;3.38;;;1.52;;
63114;SDS011;49208;50.874;6.466;2023-05-07T15:22:33;3.03;;;1.75;;
63114;SDS011;49208;50.874;6.466;2023-05-07T15:25:01;3.63;;;1.77;;
63114;SDS011;49208;50.874;6.466;2023-05-07T15:27:26;2.65;;;1.20;;
63114;SDS011;49208;50.874;6.466;2023-05-07T15:29:52;4.93;;;1.70;;
63114;SDS011;49208;50.874;6.466;2023-05-07T15:32:17;3.45;;;1.75;;
63114;SDS011;49208;50.874;6.466;2023-05-07T15:34:42;3.10;;;1.73;;
63114;SDS011;49208;50.874;6.466;2023-05-07T15:37:08;3.22;;;1.70;;
63114;SDS011;49208;50.874;6.466;2023-05-07T15:39:33;3.78;;;1.60;;
63114;SDS011;49208;50.874;6.466;2023-05-07T15:41:59;3.13;;;1.40;;
63114;SDS011;49208;50.874;6.466;2023-05-07T15:44:24;2.38;;;1.38;;
63114;SDS011;49208;50.874;6.466;2023-05-07T15:46:55;4.35;;;1.48;;
63114;SDS011;49208;50.874;6.466;2023-05-07T15:49:20;2.33;;;1.27;;
63114;SDS011;49208;50.874;6.466;2023-05-07T15:51:47;3.92;;;1.35;;
63114;SDS011;49208;50.874;6.466;2023-05-07T15:54:12;2.45;;;1.33;;
63114;SDS011;49208;50.874;6.466;2023-05-07T15:56:38;3.55;;;1.30;;
63114;SDS011;49208;50.874;6.466;2023-05-07T15:59:03;3.13;;;1.52;;
63114;SDS011;49208;50.874;6.466;2023-05-07T16:01:28;3.25;;;1.40;;
63114;SDS011;49208;50.874;6.466;2023-05-07T16:03:54;3.30;;;1.20;;
63114;SDS011;49208;50.874;6.466;2023-05-07T16:06:19;3.35;;;1.55;;
63114;SDS011;49208;50.874;6.466;2023-05-07T16:08:45;3.05;;;1.83;;
63114;SDS011;49208;50.874;6.466;2023-05-07T16:11:11;4.00;;;1.77;;
63114;SDS011;49208;50.874;6.466;2023-05-07T16:13:36;4.70;;;1.80;;
63114;SDS011;49208;50.874;6.466;2023-05-07T16:16:01;3.75;;;2.10;;
63114;SDS011;49208;50.874;6.466;2023-05-07T16:18:27;4.40;;;2.10;;
63114;SDS011;49208;50.874;6.466;2023-05-07T16:20:52;4.03;;;1.90;;
63114;SDS011;49208;50.874;6.466;2023-05-07T16:23:22;4.10;;;1.67;;
63114;SDS011;49208;50.874;6.466;2023-05-07T16:25:48;4.95;;;1.60;;
63114;SDS011;49208;50.874;6.466;2023-05-07T16:28:13;5.88;;;2.28;;
63114;SDS011;49208;50.874;6.466;2023-05-07T16:30:39;4.28;;;2.15;;
63114;SDS011;49208;50.874;6.466;2023-05-07T16:33:04;3.97;;;1.58;;
63114;SDS011;49208;50.874;6.466;2023-05-07T16:35:29;3.22;;;1.42;;
63114;SDS011;49208;50.874;6.466;2023-05-07T16:37:55;3.20;;;1.30;;
63114;SDS011;49208;50.874;6.466;2023-05-07T16:40:20;3.03;;;1.40;;
63114;SDS011;49208;50.874;6.466;2023-05-07T16:42:46;3.35;;;1.48;;
63114;SDS011;49208;50.874;6.466;2023-05-07T16:45:11;3.40;;;1.70;;
63114;SDS011;49208;50.874;6.466;2023-05-07T16:47:36;3.92;;;1.63;;
63114;SDS011;49208;50.874;6.466;2023-05-07T16:50:02;4.97;;;1.92;;
63114;SDS011;49208;50.874;6.466;2023-05-07T16:52:29;4.82;;;1.90;;
63114;SDS011;49208;50.874;6.466;2023-05-07T16:54:55;4.22;;;2.15;;
63114;SDS011;49208;50.874;6.466;2023-05-07T16:57:24;3.80;;;2.20;;
63114;SDS011;49208;50.874;6.466;2023-05-07T16:59:50;4.40;;;1.80;;
63114;SDS011;49208;50.874;6.466;2023-05-07T17:02:16;2.92;;;1.63;;
63114;SDS011;49208;50.874;6.466;2023-05-07T17:04:42;3.78;;;1.75;;
63114;SDS011;49208;50.874;6.466;2023-05-07T17:07:07;5.28;;;1.80;;
63114;SDS011;49208;50.874;6.466;2023-05-07T17:09:33;4.93;;;1.98;;
63114;SDS011;49208;50.874;6.466;2023-05-07T17:11:58;5.65;;;2.03;;
63114;SDS011;49208;50.874;6.466;2023-05-07T17:14:23;5.13;;;2.40;;
63114;SDS011;49208;50.874;6.466;2023-05-07T17:16:49;6.15;;;2.40;;
63114;SDS011;49208;50.874;6.466;2023-05-07T17:19:15;3.78;;;2.00;;
63114;SDS011;49208;50.874;6.466;2023-05-07T17:21:40;5.35;;;2.50;;
63114;SDS011;49208;50.874;6.466;2023-05-07T17:24:06;7.15;;;2.83;;
63114;SDS011;49208;50.874;6.466;2023-05-07T17:26:31;5.75;;;2.90;;
63114;SDS011;49208;50.874;6.466;2023-05-07T17:29:00;6.68;;;2.20;;
63114;SDS011;49208;50.874;6.466;2023-05-07T17:31:25;6.68;;;2.88;;
63114;SDS011;49208;50.874;6.466;2023-05-07T17:33:51;5.35;;;3.25;;
63114;SDS011;49208;50.874;6.466;2023-05-07T17:36:16;5.47;;;2.80;;
63114;SDS011;49208;50.874;6.466;2023-05-07T17:38:41;4.70;;;2.45;;
63114;SDS011;49208;50.874;6.466;2023-05-07T17:41:07;6.43;;;3.40;;
63114;SDS011;49208;50.874;6.466;2023-05-07T17:43:32;4.38;;;3.30;;
63114;SDS011;49208;50.874;6.466;2023-05-07T17:45:58;7.47;;;3.97;;
63114;SDS011;49208;50.874;6.466;2023-05-07T17:48:23;7.05;;;3.72;;
63114;SDS011;49208;50.874;6.466;2023-05-07T17:50:49;8.52;;;3.75;;
63114;SDS011;49208;50.874;6.466;2023-05-07T17:53:14;6.55;;;3.88;;
63114;SDS011;49208;50.874;6.466;2023-05-07T17:55:40;8.13;;;4.43;;
63114;SDS011;49208;50.874;6.466;2023-05-07T17:58:06;6.88;;;4.20;;
63114;SDS011;49208;50.874;6.466;2023-05-07T18:00:33;8.45;;;4.80;;
63114;SDS011;49208;50.874;6.466;2023-05-07T18:03:00;7.43;;;4.80;;
63114;SDS011;49208;50.874;6.466;2023-05-07T18:05:25;6.07;;;4.45;;
63114;SDS011;49208;50.874;6.466;2023-05-07T18:07:51;6.95;;;4.45;;
63114;SDS011;49208;50.874;6.466;2023-05-07T18:10:16;6.47;;;3.58;;
63114;SDS011;49208;50.874;6.466;2023-05-07T18:12:42;7.35;;;4.78;;
63114;SDS011;49208;50.874;6.466;2023-05-07T18:15:08;6.22;;;4.00;;
63114;SDS011;49208;50.874;6.466;2023-05-07T18:17:34;5.83;;;3.70;;
63114;SDS011;49208;50.874;6.466;2023-05-07T18:20:00;13.38;;;4.97;;
63114;SDS011;49208;50.874;6.466;2023-05-07T18:22:26;9.18;;;4.45;;
63114;SDS011;49208;50.874;6.466;2023-05-07T18:24:52;6.40;;;4.70;;
63114;SDS011;49208;50.874;6.466;2023-05-07T18:29:45;8.45;;;5.28;;
63114;SDS011;49208;50.874;6.466;2023-05-07T18:32:10;7.85;;;4.10;;
63114;SDS011;49208;50.874;6.466;2023-05-07T18:34:35;8.43;;;4.65;;
63114;SDS011;49208;50.874;6.466;2023-05-07T18:37:01;7.40;;;4.30;;
63114;SDS011;49208;50.874;6.466;2023-05-07T18:39:26;9.02;;;5.45;;
63114;SDS011;49208;50.874;6.466;2023-05-07T18:41:52;6.95;;;4.88;;
63114;SDS011;49208;50.874;6.466;2023-05-07T18:44:17;8.82;;;5.05;;
63114;SDS011;49208;50.874;6.466;2023-05-07T18:46:42;7.28;;;5.03;;
63114;SDS011;49208;50.874;6.466;2023-05-07T18:49:09;9.30;;;5.25;;
63114;SDS011;49208;50.874;6.466;2023-05-07T18:51:34;8.80;;;4.45;;
63114;SDS011;49208;50.874;6.466;2023-05-07T18:54:00;7.75;;;3.72;;
63114;SDS011;49208;50.874;6.466;2023-05-07T18:56:26;8.77;;;5.35;;
63114;SDS011;49208;50.874;6.466;2023-05-07T18:58:51;9.00;;;4.70;;
63114;SDS011;49208;50.874;6.466;2023-05-07T19:01:17;7.75;;;4.95;;
63114;SDS011;49208;50.874;6.466;2023-05-07T19:03:42;7.28;;;4.88;;
63114;SDS011;49208;50.874;6.466;2023-05-07T19:06:07;8.30;;;5.20;;
63114;SDS011;49208;50.874;6.466;2023-05-07T19:08:33;9.65;;;5.75;;
63114;SDS011;49208;50.874;6.466;2023-05-07T19:10:58;7.13;;;5.03;;
63114;SDS011;49208;50.874;6.466;2023-05-07T19:13:23;8.15;;;5.53;;
63114;SDS011;49208;50.874;6.466;2023-05-07T19:15:52;9.70;;;5.22;;
63114;SDS011;49208;50.874;6.466;2023-05-07T19:18:18;7.05;;;4.88;;
63114;SDS011;49208;50.874;6.466;2023-05-07T19:20:43;8.05;;;5.03;;
63114;SDS011;49208;50.874;6.466;2023-05-07T19:23:09;6.50;;;4.20;;
63114;SDS011;49208;50.874;6.466;2023-05-07T19:25:36;7.90;;;5.18;;
63114;SDS011;49208;50.874;6.466;2023-05-07T19:28:01;7.07;;;4.93;;
63114;SDS011;49208;50.874;6.466;2023-05-07T19:30:27;8.95;;;5.15;;
63114;SDS011;49208;50.874;6.466;2023-05-07T19:32:52;8.27;;;4.72;;
63114;SDS011;49208;50.874;6.466;2023-05-07T19:35:18;9.15;;;4.60;;
63114;SDS011;49208;50.874;6.466;2023-05-07T19:37:43;7.20;;;4.68;;
63114;SDS011;49208;50.874;6.466;2023-05-07T19:40:09;8.18;;;4.47;;
63114;SDS011;49208;50.874;6.466;2023-05-07T19:42:34;8.98;;;4.45;;
63114;SDS011;49208;50.874;6.466;2023-05-07T19:45:00;9.00;;;4.88;;
63114;SDS011;49208;50.874;6.466;2023-05-07T19:47:28;8.15;;;4.80;;
63114;SDS011;49208;50.874;6.466;2023-05-07T19:49:53;7.75;;;4.80;;
63114;SDS011;49208;50.874;6.466;2023-05-07T19:52:18;9.32;;;4.47;;
63114;SDS011;49208;50.874;6.466;2023-05-07T19:54:44;9.10;;;3.97;;
63114;SDS011;49208;50.874;6.466;2023-05-07T19:57:09;5.88;;;3.75;;
63114;SDS011;49208;50.874;6.466;2023-05-07T19:59:35;6.22;;;4.00;;
63114;SDS011;49208;50.874;6.466;2023-05-07T20:02:00;7.80;;;4.40;;
63114;SDS011;49208;50.874;6.466;2023-05-07T20:04:25;8.57;;;4.30;;
63114;SDS011;49208;50.874;6.466;2023-05-07T20:06:55;8.52;;;4.60;;
63114;SDS011;49208;50.874;6.466;2023-05-07T20:09:21;6.70;;;3.90;;
63114;SDS011;49208;50.874;6.466;2023-05-07T20:11:46;8.15;;;4.70;;
63114;SDS011;49208;50.874;6.466;2023-05-07T20:14:12;5.75;;;3.40;;
63114;SDS011;49208;50.874;6.466;2023-05-07T20:16:37;7.88;;;4.30;;
63114;SDS011;49208;50.874;6.466;2023-05-07T20:19:02;6.03;;;4.13;;
63114;SDS011;49208;50.874;6.466;2023-05-07T20:21:28;6.85;;;4.10;;
63114;SDS011;49208;50.874;6.466;2023-05-07T20:23:53;6.72;;;4.22;;
63114;SDS011;49208;50.874;6.466;2023-05-07T20:26:19;6.05;;;3.70;;
63114;SDS011;49208;50.874;6.466;2023-05-07T20:28:45;6.78;;;4.28;;
63114;SDS011;49208;50.874;6.466;2023-05-07T20:31:10;8.20;;;4.72;;
63114;SDS011;49208;50.874;6.466;2023-05-07T20:33:36;6.63;;;4.20;;
63114;SDS011;49208;50.874;6.466;2023-05-07T20:36:04;9.93;;;5.43;;
63114;SDS011;49208;50.874;6.466;2023-05-07T20:38:31;6.40;;;3.97;;
63114;SDS011;49208;50.874;6.466;2023-05-07T20:40:57;7.55;;;5.07;;
63114;SDS011;49208;50.874;6.466;2023-05-07T20:43:28;7.03;;;4.90;;
63114;SDS011;49208;50.874;6.466;2023-05-07T20:46:00;7.55;;;4.47;;
63114;SDS011;49208;50.874;6.466;2023-05-07T20:48:27;9.73;;;5.22;;
63114;SDS011;49208;50.874;6.466;2023-05-07T20:50:55;8.90;;;5.40;;
63114;SDS011;49208;50.874;6.466;2023-05-07T20:55:47;8.63;;;5.72;;
63114;SDS011;49208;50.874;6.466;2023-05-07T20:58:13;7.75;;;4.97;;
63114;SDS011;49208;50.874;6.466;2023-05-07T21:00:38;7.50;;;5.25;;
63114;SDS011;49208;50.874;6.466;2023-05-07T21:03:04;6.95;;;5.03;;
63114;SDS011;49208;50.874;6.466;2023-05-07T21:05:30;8.15;;;5.25;;
63114;SDS011;49208;50.874;6.466;2023-05-07T21:07:56;10.32;;;5.00;;
63114;SDS011;49208;50.874;6.466;2023-05-07T21:10:22;8.98;;;5.25;;
63114;SDS011;49208;50.874;6.466;2023-05-07T21:12:48;9.00;;;5.78;;
63114;SDS011;49208;50.874;6.466;2023-05-07T21:15:13;8.73;;;5.57;;
63114;SDS011;49208;50.874;6.466;2023-05-07T21:17:38;8.48;;;4.63;;
63114;SDS011;49208;50.874;6.466;2023-05-07T21:20:04;9.80;;;5.53;;
63114;SDS011;49208;50.874;6.466;2023-05-07T21:22:30;7.38;;;4.80;;